sensor_id;sensor_type;location;lat;lon;timestamp;temperature;humidity
1337;DHT22;662;48.814;9.318;2024-01-27T00:01:22;6.90;63.10
1337;DHT22;662;48.814;9.318;2024-01-27T00:03:48;6.90;63.20
1337;DHT22;662;48.814;9.318;2024-01-27T00:06:13;6.80;63.10
1337;DHT22;662;48.814;9.318;2024-01-27T00:08:39;6.80;63.20
1337;DHT22;662;48.814;9.318;2024-01-27T00:11:05;6.80;63.10
1337;DHT22;662;48.814;9.318;2024-01-27T00:13:30;6.80;63.20
1337;DHT22;662;48.814;9.318;2024-01-27T00:15:56;6.70;63.30
1337;DHT22;662;48.814;9.318;2024-01-27T00:18:21;6.70;63.40
1337;DHT22;662;48.814;9.318;2024-01-27T00:20:47;6.70;63.60
1337;DHT22;662;48.814;9.318;2024-01-27T00:23:13;6.60;63.50
1337;DHT22;662;48.814;9.318;2024-01-27T00:25:38;6.60;63.60
1337;DHT22;662;48.814;9.318;2024-01-27T00:28:04;6.60;64.40
1337;DHT22;662;48.814;9.318;2024-01-27T00:30:30;6.60;63.80
1337;DHT22;662;48.814;9.318;2024-01-27T00:32:55;6.50;63.70
1337;DHT22;662;48.814;9.318;2024-01-27T00:35:21;6.50;63.70
1337;DHT22;662;48.814;9.318;2024-01-27T00:37:47;6.50;63.60
1337;DHT22;662;48.814;9.318;2024-01-27T00:40:13;6.40;63.60
1337;DHT22;662;48.814;9.318;2024-01-27T00:42:40;6.40;63.60
1337;DHT22;662;48.814;9.318;2024-01-27T00:45:06;6.40;63.70
1337;DHT22;662;48.814;9.318;2024-01-27T00:47:32;6.30;63.80
1337;DHT22;662;48.814;9.318;2024-01-27T00:49:58;6.30;63.90
1337;DHT22;662;48.814;9.318;2024-01-27T00:52:23;6.30;64.00
1337;DHT22;662;48.814;9.318;2024-01-27T00:54:49;6.20;63.90
1337;DHT22;662;48.814;9.318;2024-01-27T00:57:15;6.20;63.90
1337;DHT22;662;48.814;9.318;2024-01-27T00:59:41;6.20;63.90
1337;DHT22;662;48.814;9.318;2024-01-27T01:02:07;6.20;63.90
1337;DHT22;662;48.814;9.318;2024-01-27T01:04:33;6.10;64.20
1337;DHT22;662;48.814;9.318;2024-01-27T01:06:59;6.10;64.40
1337;DHT22;662;48.814;9.318;2024-01-27T01:09:25;6.10;64.40
1337;DHT22;662;48.814;9.318;2024-01-27T01:11:51;6.10;64.50
1337;DHT22;662;48.814;9.318;2024-01-27T01:14:17;6.00;64.30
1337;DHT22;662;48.814;9.318;2024-01-27T01:16:43;6.00;64.30
1337;DHT22;662;48.814;9.318;2024-01-27T01:19:08;6.00;64.20
1337;DHT22;662;48.814;9.318;2024-01-27T01:21:34;5.90;64.00
1337;DHT22;662;48.814;9.318;2024-01-27T01:23:59;5.90;64.20
1337;DHT22;662;48.814;9.318;2024-01-27T01:26:25;5.90;64.50
1337;DHT22;662;48.814;9.318;2024-01-27T01:28:51;5.80;64.70
1337;DHT22;662;48.814;9.318;2024-01-27T01:31:17;5.80;64.90
1337;DHT22;662;48.814;9.318;2024-01-27T01:33:43;5.80;65.00
1337;DHT22;662;48.814;9.318;2024-01-27T01:36:08;5.80;65.00
1337;DHT22;662;48.814;9.318;2024-01-27T01:38:34;5.80;64.90
1337;DHT22;662;48.814;9.318;2024-01-27T01:41:00;5.80;65.00
1337;DHT22;662;48.814;9.318;2024-01-27T01:43:25;5.70;64.90
1337;DHT22;662;48.814;9.318;2024-01-27T01:45:52;5.80;65.00
1337;DHT22;662;48.814;9.318;2024-01-27T01:48:20;5.70;64.80
1337;DHT22;662;48.814;9.318;2024-01-27T01:50:47;5.70;64.80
1337;DHT22;662;48.814;9.318;2024-01-27T01:53:13;5.60;64.60
1337;DHT22;662;48.814;9.318;2024-01-27T01:55:39;5.60;64.70
1337;DHT22;662;48.814;9.318;2024-01-27T01:58:05;5.60;64.60
1337;DHT22;662;48.814;9.318;2024-01-27T02:00:32;5.50;64.50
1337;DHT22;662;48.814;9.318;2024-01-27T02:02:58;5.50;64.70
1337;DHT22;662;48.814;9.318;2024-01-27T02:05:24;5.50;64.70
1337;DHT22;662;48.814;9.318;2024-01-27T02:07:50;5.40;64.70
1337;DHT22;662;48.814;9.318;2024-01-27T02:10:17;5.40;64.80
1337;DHT22;662;48.814;9.318;2024-01-27T02:12:46;5.40;64.90
1337;DHT22;662;48.814;9.318;2024-01-27T02:15:12;5.40;65.00
1337;DHT22;662;48.814;9.318;2024-01-27T02:17:39;5.30;64.90
1337;DHT22;662;48.814;9.318;2024-01-27T02:20:06;5.40;65.00
1337;DHT22;662;48.814;9.318;2024-01-27T02:22:35;5.30;65.00
1337;DHT22;662;48.814;9.318;2024-01-27T02:25:04;5.30;65.00
1337;DHT22;662;48.814;9.318;2024-01-27T02:27:30;5.30;65.10
1337;DHT22;662;48.814;9.318;2024-01-27T02:29:56;5.30;65.10
1337;DHT22;662;48.814;9.318;2024-01-27T02:32:22;5.20;65.10
1337;DHT22;662;48.814;9.318;2024-01-27T02:34:47;5.20;65.10
1337;DHT22;662;48.814;9.318;2024-01-27T02:37:14;5.20;65.20
1337;DHT22;662;48.814;9.318;2024-01-27T02:39:39;5.20;65.30
1337;DHT22;662;48.814;9.318;2024-01-27T02:42:06;5.10;65.30
1337;DHT22;662;48.814;9.318;2024-01-27T02:44:31;5.10;65.30
1337;DHT22;662;48.814;9.318;2024-01-27T02:46:57;5.10;65.40
1337;DHT22;662;48.814;9.318;2024-01-27T02:49:23;5.10;65.50
1337;DHT22;662;48.814;9.318;2024-01-27T02:51:48;5.00;65.30
1337;DHT22;662;48.814;9.318;2024-01-27T02:54:14;5.00;65.20
1337;DHT22;662;48.814;9.318;2024-01-27T02:56:40;5.00;65.40
1337;DHT22;662;48.814;9.318;2024-01-27T02:59:06;5.00;65.60
1337;DHT22;662;48.814;9.318;2024-01-27T03:01:32;5.00;65.70
1337;DHT22;662;48.814;9.318;2024-01-27T03:03:57;4.90;65.70
1337;DHT22;662;48.814;9.318;2024-01-27T03:06:23;4.90;65.70
1337;DHT22;662;48.814;9.318;2024-01-27T03:08:48;4.90;65.80
1337;DHT22;662;48.814;9.318;2024-01-27T03:11:14;4.90;65.80
1337;DHT22;662;48.814;9.318;2024-01-27T03:13:40;4.90;65.90
1337;DHT22;662;48.814;9.318;2024-01-27T03:16:10;4.90;65.90
1337;DHT22;662;48.814;9.318;2024-01-27T03:18:36;4.80;65.90
1337;DHT22;662;48.814;9.318;2024-01-27T03:21:03;4.90;65.80
1337;DHT22;662;48.814;9.318;2024-01-27T03:23:28;4.80;65.70
1337;DHT22;662;48.814;9.318;2024-01-27T03:25:54;4.80;65.60
1337;DHT22;662;48.814;9.318;2024-01-27T03:28:20;4.80;65.40
1337;DHT22;662;48.814;9.318;2024-01-27T03:30:46;4.70;65.50
1337;DHT22;662;48.814;9.318;2024-01-27T03:33:11;4.70;65.80
1337;DHT22;662;48.814;9.318;2024-01-27T03:35:39;4.70;65.90
1337;DHT22;662;48.814;9.318;2024-01-27T03:38:05;4.70;65.90
1337;DHT22;662;48.814;9.318;2024-01-27T03:40:31;4.70;65.90
1337;DHT22;662;48.814;9.318;2024-01-27T03:42:57;4.60;65.70
1337;DHT22;662;48.814;9.318;2024-01-27T03:45:22;4.60;65.80
1337;DHT22;662;48.814;9.318;2024-01-27T03:47:48;4.60;65.80
1337;DHT22;662;48.814;9.318;2024-01-27T03:50:14;4.60;65.80
1337;DHT22;662;48.814;9.318;2024-01-27T03:52:40;4.60;65.80
1337;DHT22;662;48.814;9.318;2024-01-27T03:55:06;4.50;65.60
1337;DHT22;662;48.814;9.318;2024-01-27T03:57:32;4.50;65.70
1337;DHT22;662;48.814;9.318;2024-01-27T03:59:58;4.50;65.70
1337;DHT22;662;48.814;9.318;2024-01-27T04:02:23;4.50;65.70
1337;DHT22;662;48.814;9.318;2024-01-27T04:04:49;4.40;65.60
1337;DHT22;662;48.814;9.318;2024-01-27T04:07:14;4.40;65.50
1337;DHT22;662;48.814;9.318;2024-01-27T04:09:40;4.40;65.60
1337;DHT22;662;48.814;9.318;2024-01-27T04:12:06;4.40;65.70
1337;DHT22;662;48.814;9.318;2024-01-27T04:14:31;4.40;65.70
1337;DHT22;662;48.814;9.318;2024-01-27T04:16:57;4.30;65.60
1337;DHT22;662;48.814;9.318;2024-01-27T04:19:23;4.30;65.60
1337;DHT22;662;48.814;9.318;2024-01-27T04:21:48;4.30;65.60
1337;DHT22;662;48.814;9.318;2024-01-27T04:24:14;4.20;65.50
1337;DHT22;662;48.814;9.318;2024-01-27T04:26:40;4.20;65.70
1337;DHT22;662;48.814;9.318;2024-01-27T04:29:05;4.10;65.80
1337;DHT22;662;48.814;9.318;2024-01-27T04:31:31;4.10;65.80
1337;DHT22;662;48.814;9.318;2024-01-27T04:33:57;4.10;65.90
1337;DHT22;662;48.814;9.318;2024-01-27T04:36:30;4.10;66.00
1337;DHT22;662;48.814;9.318;2024-01-27T04:38:55;4.10;66.00
1337;DHT22;662;48.814;9.318;2024-01-27T04:41:21;4.00;66.00
1337;DHT22;662;48.814;9.318;2024-01-27T04:43:47;4.00;65.90
1337;DHT22;662;48.814;9.318;2024-01-27T04:46:12;3.90;65.70
1337;DHT22;662;48.814;9.318;2024-01-27T04:48:38;4.00;65.90
1337;DHT22;662;48.814;9.318;2024-01-27T04:51:04;3.90;66.00
1337;DHT22;662;48.814;9.318;2024-01-27T04:53:29;3.90;66.10
1337;DHT22;662;48.814;9.318;2024-01-27T04:55:55;3.90;66.10
1337;DHT22;662;48.814;9.318;2024-01-27T04:58:20;3.90;66.10
1337;DHT22;662;48.814;9.318;2024-01-27T05:00:46;3.90;66.80
1337;DHT22;662;48.814;9.318;2024-01-27T05:03:12;3.90;65.90
1337;DHT22;662;48.814;9.318;2024-01-27T05:05:42;3.80;65.80
1337;DHT22;662;48.814;9.318;2024-01-27T05:08:09;3.70;65.60
1337;DHT22;662;48.814;9.318;2024-01-27T05:10:35;3.70;65.70
1337;DHT22;662;48.814;9.318;2024-01-27T05:13:01;3.70;65.70
1337;DHT22;662;48.814;9.318;2024-01-27T05:15:27;3.70;65.90
1337;DHT22;662;48.814;9.318;2024-01-27T05:17:53;3.60;66.00
1337;DHT22;662;48.814;9.318;2024-01-27T05:20:18;3.70;66.20
1337;DHT22;662;48.814;9.318;2024-01-27T05:22:45;3.70;66.30
1337;DHT22;662;48.814;9.318;2024-01-27T05:25:11;3.60;66.00
1337;DHT22;662;48.814;9.318;2024-01-27T05:27:37;3.60;65.90
1337;DHT22;662;48.814;9.318;2024-01-27T05:30:05;3.50;65.70
1337;DHT22;662;48.814;9.318;2024-01-27T05:32:31;3.50;65.80
1337;DHT22;662;48.814;9.318;2024-01-27T05:34:56;3.50;65.90
1337;DHT22;662;48.814;9.318;2024-01-27T05:37:22;3.40;65.80
1337;DHT22;662;48.814;9.318;2024-01-27T05:39:47;3.40;66.00
1337;DHT22;662;48.814;9.318;2024-01-27T05:42:13;3.40;66.10
1337;DHT22;662;48.814;9.318;2024-01-27T05:44:39;3.40;66.20
1337;DHT22;662;48.814;9.318;2024-01-27T05:47:06;3.40;66.30
1337;DHT22;662;48.814;9.318;2024-01-27T05:49:32;3.40;66.30
1337;DHT22;662;48.814;9.318;2024-01-27T05:51:57;3.30;66.20
1337;DHT22;662;48.814;9.318;2024-01-27T05:54:24;3.30;66.20
1337;DHT22;662;48.814;9.318;2024-01-27T05:56:49;3.30;66.20
1337;DHT22;662;48.814;9.318;2024-01-27T05:59:15;3.30;66.20
1337;DHT22;662;48.814;9.318;2024-01-27T06:01:41;3.20;66.00
1337;DHT22;662;48.814;9.318;2024-01-27T06:04:08;3.20;66.10
1337;DHT22;662;48.814;9.318;2024-01-27T06:06:34;3.20;66.20
1337;DHT22;662;48.814;9.318;2024-01-27T06:09:00;3.20;66.30
1337;DHT22;662;48.814;9.318;2024-01-27T06:11:26;3.20;66.30
1337;DHT22;662;48.814;9.318;2024-01-27T06:13:51;3.20;66.40
1337;DHT22;662;48.814;9.318;2024-01-27T06:16:23;3.20;66.40
1337;DHT22;662;48.814;9.318;2024-01-27T06:18:49;3.10;66.20
1337;DHT22;662;48.814;9.318;2024-01-27T06:21:14;3.10;66.10
1337;DHT22;662;48.814;9.318;2024-01-27T06:23:40;3.10;66.20
1337;DHT22;662;48.814;9.318;2024-01-27T06:26:07;3.00;66.20
1337;DHT22;662;48.814;9.318;2024-01-27T06:28:37;3.00;66.40
1337;DHT22;662;48.814;9.318;2024-01-27T06:31:06;3.00;66.50
1337;DHT22;662;48.814;9.318;2024-01-27T06:33:37;3.00;66.60
1337;DHT22;662;48.814;9.318;2024-01-27T06:36:10;3.00;66.70
1337;DHT22;662;48.814;9.318;2024-01-27T06:38:37;3.00;66.80
1337;DHT22;662;48.814;9.318;2024-01-27T06:41:03;3.00;66.90
1337;DHT22;662;48.814;9.318;2024-01-27T06:43:29;3.10;67.10
1337;DHT22;662;48.814;9.318;2024-01-27T06:45:57;3.10;67.10
1337;DHT22;662;48.814;9.318;2024-01-27T06:48:23;3.10;67.00
1337;DHT22;662;48.814;9.318;2024-01-27T06:50:52;3.00;66.80
1337;DHT22;662;48.814;9.318;2024-01-27T06:53:21;3.10;66.90
1337;DHT22;662;48.814;9.318;2024-01-27T06:55:47;3.00;67.10
1337;DHT22;662;48.814;9.318;2024-01-27T06:58:12;3.10;67.10
1337;DHT22;662;48.814;9.318;2024-01-27T07:00:38;3.10;67.20
1337;DHT22;662;48.814;9.318;2024-01-27T07:03:04;3.10;67.20
1337;DHT22;662;48.814;9.318;2024-01-27T07:05:30;3.10;67.20
1337;DHT22;662;48.814;9.318;2024-01-27T07:07:58;3.10;67.20
1337;DHT22;662;48.814;9.318;2024-01-27T07:10:24;3.10;67.10
1337;DHT22;662;48.814;9.318;2024-01-27T07:12:49;3.10;67.10
1337;DHT22;662;48.814;9.318;2024-01-27T07:15:15;3.10;67.10
1337;DHT22;662;48.814;9.318;2024-01-27T07:17:40;3.10;67.10
1337;DHT22;662;48.814;9.318;2024-01-27T07:20:07;3.10;67.00
1337;DHT22;662;48.814;9.318;2024-01-27T07:22:33;3.10;67.00
1337;DHT22;662;48.814;9.318;2024-01-27T07:24:59;3.10;66.90
1337;DHT22;662;48.814;9.318;2024-01-27T07:27:30;3.10;66.90
1337;DHT22;662;48.814;9.318;2024-01-27T07:29:59;3.10;66.90
1337;DHT22;662;48.814;9.318;2024-01-27T07:32:27;3.00;66.70
1337;DHT22;662;48.814;9.318;2024-01-27T07:34:53;3.00;66.60
1337;DHT22;662;48.814;9.318;2024-01-27T07:37:19;3.00;66.70
1337;DHT22;662;48.814;9.318;2024-01-27T07:39:46;3.00;66.70
1337;DHT22;662;48.814;9.318;2024-01-27T07:42:14;3.00;66.90
1337;DHT22;662;48.814;9.318;2024-01-27T07:44:41;3.00;67.00
1337;DHT22;662;48.814;9.318;2024-01-27T07:47:09;3.00;67.10
1337;DHT22;662;48.814;9.318;2024-01-27T07:49:39;3.00;67.10
1337;DHT22;662;48.814;9.318;2024-01-27T07:52:05;3.10;67.20
1337;DHT22;662;48.814;9.318;2024-01-27T07:54:30;3.10;67.30
1337;DHT22;662;48.814;9.318;2024-01-27T07:56:57;3.10;67.30
1337;DHT22;662;48.814;9.318;2024-01-27T07:59:24;3.10;67.00
1337;DHT22;662;48.814;9.318;2024-01-27T08:01:50;3.10;67.60
1337;DHT22;662;48.814;9.318;2024-01-27T08:04:15;3.10;66.80
1337;DHT22;662;48.814;9.318;2024-01-27T08:06:49;3.00;66.90
1337;DHT22;662;48.814;9.318;2024-01-27T08:09:16;3.10;67.40
1337;DHT22;662;48.814;9.318;2024-01-27T08:11:42;3.10;67.50
1337;DHT22;662;48.814;9.318;2024-01-27T08:14:08;3.10;67.70
1337;DHT22;662;48.814;9.318;2024-01-27T08:16:34;3.10;67.70
1337;DHT22;662;48.814;9.318;2024-01-27T08:19:00;3.10;67.80
1337;DHT22;662;48.814;9.318;2024-01-27T08:21:25;3.10;67.90
1337;DHT22;662;48.814;9.318;2024-01-27T08:23:54;3.10;67.90
1337;DHT22;662;48.814;9.318;2024-01-27T08:26:20;3.20;68.10
1337;DHT22;662;48.814;9.318;2024-01-27T08:28:47;3.30;68.20
1337;DHT22;662;48.814;9.318;2024-01-27T08:31:13;3.30;68.10
1337;DHT22;662;48.814;9.318;2024-01-27T08:33:38;3.40;68.00
1337;DHT22;662;48.814;9.318;2024-01-27T08:36:04;3.40;67.90
1337;DHT22;662;48.814;9.318;2024-01-27T08:38:30;3.50;68.00
1337;DHT22;662;48.814;9.318;2024-01-27T08:40:55;3.50;68.00
1337;DHT22;662;48.814;9.318;2024-01-27T08:43:21;3.60;68.00
1337;DHT22;662;48.814;9.318;2024-01-27T08:45:47;3.60;67.90
1337;DHT22;662;48.814;9.318;2024-01-27T08:48:12;3.70;67.80
1337;DHT22;662;48.814;9.318;2024-01-27T08:50:39;3.70;67.80
1337;DHT22;662;48.814;9.318;2024-01-27T08:53:04;3.80;68.00
1337;DHT22;662;48.814;9.318;2024-01-27T08:55:30;3.80;67.90
1337;DHT22;662;48.814;9.318;2024-01-27T08:57:56;3.90;67.90
1337;DHT22;662;48.814;9.318;2024-01-27T09:00:22;4.00;68.00
1337;DHT22;662;48.814;9.318;2024-01-27T09:02:48;4.00;67.80
1337;DHT22;662;48.814;9.318;2024-01-27T09:05:14;4.00;67.70
1337;DHT22;662;48.814;9.318;2024-01-27T09:07:40;4.10;67.80
1337;DHT22;662;48.814;9.318;2024-01-27T09:10:09;4.00;67.60
1337;DHT22;662;48.814;9.318;2024-01-27T09:12:38;4.10;67.80
1337;DHT22;662;48.814;9.318;2024-01-27T09:15:04;4.10;67.70
1337;DHT22;662;48.814;9.318;2024-01-27T09:17:33;4.20;67.80
1337;DHT22;662;48.814;9.318;2024-01-27T09:19:58;4.20;67.80
1337;DHT22;662;48.814;9.318;2024-01-27T09:22:24;4.30;67.80
1337;DHT22;662;48.814;9.318;2024-01-27T09:24:52;4.30;68.40
1337;DHT22;662;48.814;9.318;2024-01-27T09:27:18;4.30;67.60
1337;DHT22;662;48.814;9.318;2024-01-27T09:29:44;4.30;67.90
1337;DHT22;662;48.814;9.318;2024-01-27T09:32:09;4.30;68.00
1337;DHT22;662;48.814;9.318;2024-01-27T09:34:35;4.30;68.10
1337;DHT22;662;48.814;9.318;2024-01-27T09:37:01;4.30;68.10
1337;DHT22;662;48.814;9.318;2024-01-27T09:39:28;4.30;68.20
1337;DHT22;662;48.814;9.318;2024-01-27T09:41:54;4.30;68.30
1337;DHT22;662;48.814;9.318;2024-01-27T09:44:21;4.30;68.40
1337;DHT22;662;48.814;9.318;2024-01-27T09:46:47;4.30;68.50
1337;DHT22;662;48.814;9.318;2024-01-27T09:49:14;4.30;68.60
1337;DHT22;662;48.814;9.318;2024-01-27T09:51:43;4.30;68.80
1337;DHT22;662;48.814;9.318;2024-01-27T09:54:08;4.30;69.00
1337;DHT22;662;48.814;9.318;2024-01-27T09:56:34;4.30;69.30
1337;DHT22;662;48.814;9.318;2024-01-27T09:59:01;4.30;69.60
1337;DHT22;662;48.814;9.318;2024-01-27T10:01:27;4.40;69.90
1337;DHT22;662;48.814;9.318;2024-01-27T10:03:54;4.50;70.00
1337;DHT22;662;48.814;9.318;2024-01-27T10:06:20;4.50;70.10
1337;DHT22;662;48.814;9.318;2024-01-27T10:08:56;4.50;70.20
1337;DHT22;662;48.814;9.318;2024-01-27T10:11:22;4.60;70.50
1337;DHT22;662;48.814;9.318;2024-01-27T10:13:58;4.60;70.50
1337;DHT22;662;48.814;9.318;2024-01-27T10:16:26;4.70;70.80
1337;DHT22;662;48.814;9.318;2024-01-27T10:19:00;4.80;71.10
1337;DHT22;662;48.814;9.318;2024-01-27T10:21:26;4.80;71.10
1337;DHT22;662;48.814;9.318;2024-01-27T10:23:52;4.80;71.30
1337;DHT22;662;48.814;9.318;2024-01-27T10:26:18;4.80;71.40
1337;DHT22;662;48.814;9.318;2024-01-27T10:28:53;4.80;71.70
1337;DHT22;662;48.814;9.318;2024-01-27T10:31:19;4.90;71.80
1337;DHT22;662;48.814;9.318;2024-01-27T10:33:53;4.90;71.90
1337;DHT22;662;48.814;9.318;2024-01-27T10:36:19;5.00;71.90
1337;DHT22;662;48.814;9.318;2024-01-27T10:38:45;5.00;71.80
1337;DHT22;662;48.814;9.318;2024-01-27T10:41:11;5.10;71.70
1337;DHT22;662;48.814;9.318;2024-01-27T10:43:38;5.10;71.60
1337;DHT22;662;48.814;9.318;2024-01-27T10:46:06;5.20;71.80
1337;DHT22;662;48.814;9.318;2024-01-27T10:48:34;5.20;71.80
1337;DHT22;662;48.814;9.318;2024-01-27T10:51:09;5.30;71.80
1337;DHT22;662;48.814;9.318;2024-01-27T10:53:36;5.30;71.70
1337;DHT22;662;48.814;9.318;2024-01-27T10:56:03;5.40;71.80
1337;DHT22;662;48.814;9.318;2024-01-27T10:58:33;5.40;71.80
1337;DHT22;662;48.814;9.318;2024-01-27T11:01:13;5.50;71.90
1337;DHT22;662;48.814;9.318;2024-01-27T11:03:39;5.50;71.80
1337;DHT22;662;48.814;9.318;2024-01-27T11:06:06;5.60;71.90
1337;DHT22;662;48.814;9.318;2024-01-27T11:08:33;5.60;72.60
1337;DHT22;662;48.814;9.318;2024-01-27T11:11:00;5.70;71.90
1337;DHT22;662;48.814;9.318;2024-01-27T11:13:28;5.70;71.80
1337;DHT22;662;48.814;9.318;2024-01-27T11:15:56;5.80;72.00
1337;DHT22;662;48.814;9.318;2024-01-27T11:18:22;5.80;72.00
1337;DHT22;662;48.814;9.318;2024-01-27T11:20:47;5.90;72.10
1337;DHT22;662;48.814;9.318;2024-01-27T11:23:13;5.90;72.00
1337;DHT22;662;48.814;9.318;2024-01-27T11:25:40;6.00;72.10
1337;DHT22;662;48.814;9.318;2024-01-27T11:28:14;6.10;72.10
1337;DHT22;662;48.814;9.318;2024-01-27T11:30:48;6.10;72.00
1337;DHT22;662;48.814;9.318;2024-01-27T11:33:13;6.10;71.80
1337;DHT22;662;48.814;9.318;2024-01-27T11:35:39;6.20;71.70
1337;DHT22;662;48.814;9.318;2024-01-27T11:38:05;6.30;71.70
1337;DHT22;662;48.814;9.318;2024-01-27T11:40:31;6.30;71.50
1337;DHT22;662;48.814;9.318;2024-01-27T11:43:00;6.40;71.40
1337;DHT22;662;48.814;9.318;2024-01-27T11:45:27;6.40;71.20
1337;DHT22;662;48.814;9.318;2024-01-27T11:47:55;6.50;70.90
1337;DHT22;662;48.814;9.318;2024-01-27T11:50:21;6.50;70.40
1337;DHT22;662;48.814;9.318;2024-01-27T11:52:47;6.50;70.10
1337;DHT22;662;48.814;9.318;2024-01-27T11:55:13;6.60;70.00
1337;DHT22;662;48.814;9.318;2024-01-27T11:57:41;6.70;69.90
1337;DHT22;662;48.814;9.318;2024-01-27T12:00:08;6.80;69.70
1337;DHT22;662;48.814;9.318;2024-01-27T12:02:35;6.80;69.60
1337;DHT22;662;48.814;9.318;2024-01-27T12:05:01;6.90;69.50
1337;DHT22;662;48.814;9.318;2024-01-27T12:07:27;7.00;69.40
1337;DHT22;662;48.814;9.318;2024-01-27T12:09:52;7.10;69.10
1337;DHT22;662;48.814;9.318;2024-01-27T12:12:19;7.10;68.70
1337;DHT22;662;48.814;9.318;2024-01-27T12:14:47;7.20;68.50
1337;DHT22;662;48.814;9.318;2024-01-27T12:17:12;7.20;68.30
1337;DHT22;662;48.814;9.318;2024-01-27T12:19:39;7.30;68.10
1337;DHT22;662;48.814;9.318;2024-01-27T12:22:05;7.30;67.80
1337;DHT22;662;48.814;9.318;2024-01-27T12:24:45;7.40;67.70
1337;DHT22;662;48.814;9.318;2024-01-27T12:27:11;7.40;67.50
1337;DHT22;662;48.814;9.318;2024-01-27T12:29:36;7.50;67.40
1337;DHT22;662;48.814;9.318;2024-01-27T12:32:02;7.50;67.20
1337;DHT22;662;48.814;9.318;2024-01-27T12:34:28;7.50;66.90
1337;DHT22;662;48.814;9.318;2024-01-27T12:36:54;7.60;66.80
1337;DHT22;662;48.814;9.318;2024-01-27T12:39:20;7.60;66.50
1337;DHT22;662;48.814;9.318;2024-01-27T12:41:46;7.70;66.40
1337;DHT22;662;48.814;9.318;2024-01-27T12:44:12;7.70;66.20
1337;DHT22;662;48.814;9.318;2024-01-27T12:46:38;7.80;66.10
1337;DHT22;662;48.814;9.318;2024-01-27T12:49:04;7.90;65.80
1337;DHT22;662;48.814;9.318;2024-01-27T12:51:30;7.90;65.50
1337;DHT22;662;48.814;9.318;2024-01-27T12:53:56;8.00;65.30
1337;DHT22;662;48.814;9.318;2024-01-27T12:56:22;8.00;65.00
1337;DHT22;662;48.814;9.318;2024-01-27T12:58:48;8.00;64.80
1337;DHT22;662;48.814;9.318;2024-01-27T13:01:14;8.00;64.60
1337;DHT22;662;48.814;9.318;2024-01-27T13:03:40;8.10;64.40
1337;DHT22;662;48.814;9.318;2024-01-27T13:06:06;8.20;64.40
1337;DHT22;662;48.814;9.318;2024-01-27T13:08:32;8.20;64.10
1337;DHT22;662;48.814;9.318;2024-01-27T13:10:58;8.20;63.90
1337;DHT22;662;48.814;9.318;2024-01-27T13:13:24;8.20;63.40
1337;DHT22;662;48.814;9.318;2024-01-27T13:15:50;8.30;63.20
1337;DHT22;662;48.814;9.318;2024-01-27T13:18:15;8.30;62.80
1337;DHT22;662;48.814;9.318;2024-01-27T13:20:41;8.40;62.60
1337;DHT22;662;48.814;9.318;2024-01-27T13:23:06;8.40;62.30
1337;DHT22;662;48.814;9.318;2024-01-27T13:25:33;8.40;61.70
1337;DHT22;662;48.814;9.318;2024-01-27T13:27:59;8.40;60.40
1337;DHT22;662;48.814;9.318;2024-01-27T13:30:24;8.50;60.00
1337;DHT22;662;48.814;9.318;2024-01-27T13:32:50;8.60;59.90
1337;DHT22;662;48.814;9.318;2024-01-27T13:35:16;8.60;59.80
1337;DHT22;662;48.814;9.318;2024-01-27T13:37:41;8.60;59.80
1337;DHT22;662;48.814;9.318;2024-01-27T13:40:08;8.60;59.80
1337;DHT22;662;48.814;9.318;2024-01-27T13:42:35;8.70;59.80
1337;DHT22;662;48.814;9.318;2024-01-27T13:45:01;8.70;59.80
1337;DHT22;662;48.814;9.318;2024-01-27T13:47:27;8.70;59.60
1337;DHT22;662;48.814;9.318;2024-01-27T13:49:53;8.70;59.60
1337;DHT22;662;48.814;9.318;2024-01-27T13:52:19;8.80;59.50
1337;DHT22;662;48.814;9.318;2024-01-27T13:54:45;8.80;59.30
1337;DHT22;662;48.814;9.318;2024-01-27T13:57:11;8.80;59.10
1337;DHT22;662;48.814;9.318;2024-01-27T13:59:37;8.80;59.00
1337;DHT22;662;48.814;9.318;2024-01-27T14:02:03;8.90;58.80
1337;DHT22;662;48.814;9.318;2024-01-27T14:04:29;8.90;58.60
1337;DHT22;662;48.814;9.318;2024-01-27T14:06:54;8.90;58.50
1337;DHT22;662;48.814;9.318;2024-01-27T14:09:22;8.90;58.30
1337;DHT22;662;48.814;9.318;2024-01-27T14:11:47;8.90;58.00
1337;DHT22;662;48.814;9.318;2024-01-27T14:14:13;8.90;57.60
1337;DHT22;662;48.814;9.318;2024-01-27T14:16:39;9.00;57.30
1337;DHT22;662;48.814;9.318;2024-01-27T14:19:05;9.00;57.00
1337;DHT22;662;48.814;9.318;2024-01-27T14:21:31;9.00;56.60
1337;DHT22;662;48.814;9.318;2024-01-27T14:23:57;9.00;56.10
1337;DHT22;662;48.814;9.318;2024-01-27T14:26:29;9.00;56.00
1337;DHT22;662;48.814;9.318;2024-01-27T14:28:55;9.10;55.60
1337;DHT22;662;48.814;9.318;2024-01-27T14:31:21;9.20;55.60
1337;DHT22;662;48.814;9.318;2024-01-27T14:33:47;9.30;55.60
1337;DHT22;662;48.814;9.318;2024-01-27T14:36:13;9.60;55.70
1337;DHT22;662;48.814;9.318;2024-01-27T14:38:39;9.80;55.40
1337;DHT22;662;48.814;9.318;2024-01-27T14:41:09;10.00;53.70
1337;DHT22;662;48.814;9.318;2024-01-27T14:43:38;10.20;53.40
1337;DHT22;662;48.814;9.318;2024-01-27T14:46:04;10.40;53.30
1337;DHT22;662;48.814;9.318;2024-01-27T14:48:30;10.70;53.20
1337;DHT22;662;48.814;9.318;2024-01-27T14:50:56;10.90;52.90
1337;DHT22;662;48.814;9.318;2024-01-27T14:53:28;11.10;52.20
1337;DHT22;662;48.814;9.318;2024-01-27T14:55:55;11.20;51.50
1337;DHT22;662;48.814;9.318;2024-01-27T14:58:23;11.20;51.30
1337;DHT22;662;48.814;9.318;2024-01-27T15:00:49;11.20;51.10
1337;DHT22;662;48.814;9.318;2024-01-27T15:03:21;11.10;51.00
1337;DHT22;662;48.814;9.318;2024-01-27T15:05:47;11.00;50.90
1337;DHT22;662;48.814;9.318;2024-01-27T15:08:15;10.90;51.00
1337;DHT22;662;48.814;9.318;2024-01-27T15:10:41;10.80;51.10
1337;DHT22;662;48.814;9.318;2024-01-27T15:13:09;10.70;51.20
1337;DHT22;662;48.814;9.318;2024-01-27T15:15:36;10.50;51.20
1337;DHT22;662;48.814;9.318;2024-01-27T15:18:02;10.40;51.40
1337;DHT22;662;48.814;9.318;2024-01-27T15:20:28;10.30;51.60
1337;DHT22;662;48.814;9.318;2024-01-27T15:22:53;10.20;51.80
1337;DHT22;662;48.814;9.318;2024-01-27T15:25:20;10.10;52.00
1337;DHT22;662;48.814;9.318;2024-01-27T15:27:50;9.90;53.00
1337;DHT22;662;48.814;9.318;2024-01-27T15:30:17;9.80;53.20
1337;DHT22;662;48.814;9.318;2024-01-27T15:32:44;9.80;53.50
1337;DHT22;662;48.814;9.318;2024-01-27T15:35:10;9.70;53.60
1337;DHT22;662;48.814;9.318;2024-01-27T15:37:35;9.60;53.70
1337;DHT22;662;48.814;9.318;2024-01-27T15:40:07;9.50;53.80
1337;DHT22;662;48.814;9.318;2024-01-27T15:42:33;9.40;53.90
1337;DHT22;662;48.814;9.318;2024-01-27T15:44:58;9.30;53.90
1337;DHT22;662;48.814;9.318;2024-01-27T15:47:24;9.30;54.00
1337;DHT22;662;48.814;9.318;2024-01-27T15:49:51;9.20;54.10
1337;DHT22;662;48.814;9.318;2024-01-27T15:52:25;9.10;54.10
1337;DHT22;662;48.814;9.318;2024-01-27T15:54:50;9.00;54.10
1337;DHT22;662;48.814;9.318;2024-01-27T15:57:16;8.90;54.20
1337;DHT22;662;48.814;9.318;2024-01-27T15:59:41;8.90;54.30
1337;DHT22;662;48.814;9.318;2024-01-27T16:02:07;8.80;54.50
1337;DHT22;662;48.814;9.318;2024-01-27T16:04:33;8.80;54.60
1337;DHT22;662;48.814;9.318;2024-01-27T16:06:58;8.70;54.70
1337;DHT22;662;48.814;9.318;2024-01-27T16:09:24;8.60;54.80
1337;DHT22;662;48.814;9.318;2024-01-27T16:11:49;8.60;55.10
1337;DHT22;662;48.814;9.318;2024-01-27T16:14:16;8.50;55.30
1337;DHT22;662;48.814;9.318;2024-01-27T16:16:41;8.40;55.40
1337;DHT22;662;48.814;9.318;2024-01-27T16:19:07;8.30;55.50
1337;DHT22;662;48.814;9.318;2024-01-27T16:21:33;8.30;55.70
1337;DHT22;662;48.814;9.318;2024-01-27T16:23:59;8.20;56.10
1337;DHT22;662;48.814;9.318;2024-01-27T16:26:24;8.10;56.10
1337;DHT22;662;48.814;9.318;2024-01-27T16:28:52;8.10;56.40